METAR Data
IDs: Format: Raw Decoded Include TAF

Data at: 1543 UTC 24 Aug 2019

PFNO 241456Z AUTO 04007KT 10SM CLR 03/02 A2981 RMK AO2 SLP095 6//// T00280022 58001 PNO $
PFNO 241356Z AUTO 04005KT 10SM CLR 04/01 A2982 RMK AO2 SLP097 T00440011 PNO $
PFNO 241256Z AUTO 00000KT 10SM CLR 06/04 A2982 RMK AO2 SLP099 T00560039 PNO $
PFNO 241156Z AUTO 00000KT 10SM CLR 06/01 A2982 RMK AO2 SLP097 6//// 7//// T00610011 10122 20056 53007 PNO $
PFNO 241056Z AUTO 00000KT 10SM CLR 07/M01 A2980 RMK AO2 SLP093 T00721006 PNO $
PFNO 240956Z AUTO 16003KT 10SM CLR 07/03 A2980 RMK AO2 SLP093 T00670033 PNO $
PFNO 240856Z AUTO 00000KT 10SM CLR 08/01 A2979 RMK AO2 SLP090 6//// T00780006 401560044 51010 PNO $
PFNO 240756Z AUTO 03006KT 10SM CLR 09/02 A2979 RMK AO2 SLP088 T00890017 PNO $
PFNO 240656Z AUTO 09003KT 10SM CLR 11/M01 A2978 RMK AO2 SLP084 T01061006 PNO $
PFNO 240556Z AUTO 01004KT 9SM CLR 12/00 A2976 RMK AO2 SLP079 6//// T01220000 10156 20122 53005 PNO $
PFNO 240456Z AUTO 04009KT 10SM CLR 14/M02 A2976 RMK AO2 SLP077 T01441017 PNO $
PFNO 240356Z AUTO 02008KT 10SM CLR 15/M03 A2975 RMK AO2 SLP075 T01501033 PNO $
PFNO 240256Z AUTO 03011KT 10SM CLR 16/M04 A2975 RMK AO2 SLP074 6//// T01561039 52001 PNO $
PFNO 240156Z AUTO 02007KT 10SM CLR 16/M03 A2975 RMK AO2 SLP075 T01561033 PNO $
PFNO 240056Z AUTO 01010KT 10SM CLR 15/M03 A2975 RMK AO2 SLP073 T01501033 PNO $
PFNO 232356Z AUTO 36005G16KT 10SM CLR 15/M03 A2975 RMK AO2 SLP073 6//// T01501033 10150 20083 53006 PNO $
PFNO 232256Z AUTO 01010KT 10SM CLR 14/M01 A2974 RMK AO2 SLP069 T01441006 PNO $
PFNO 232156Z AUTO 02009KT 9SM CLR 14/04 A2973 RMK AO2 SLP068 T01390039 PNO $
PFNO 232056Z AUTO 03009KT 10SM CLR 13/04 A2973 RMK AO2 SLP068 6//// T01280039 51006 PNO $
PFNO 231956Z AUTO 03005KT 10SM CLR 12/05 A2973 RMK AO2 SLP067 T01170050 PNO $
PFNO 231856Z AUTO 34003KT 10SM CLR 09/05 A2972 RMK AO2 SLP065 T00940050 PNO $
PFNO 231756Z AUTO 33005KT 10SM CLR 08/05 A2971 RMK AO2 SLP062 6//// T00830050 10083 20044 58001 PNO $
PFNO 231656Z AUTO 31006KT 10SM CLR 07/04 A2972 RMK AO2 SLP063 T00720044 PNO $
PFNO 231616Z AUTO 32007KT 10SM FEW001 SCT080 06/03 A2972 RMK AO2 PNO $
PFNO 231556Z AUTO 31007KT 9SM SCT080 06/03 A2972 RMK AO2 SLP064 T00560033 PNO $
PFNO 231456Z AUTO 27007KT 10SM CLR 04/03 A2972 RMK AO2 SLP063 6//// T00440033 51005 PNO $
PFNO 231356Z AUTO 30006KT 10SM CLR 05/03 A2971 RMK AO2 SLP062 T00500028 PNO $
PFNO 231256Z AUTO 31007KT 10SM FEW055 06/03 A2971 RMK AO2 SLP060 T00610028 PNO $
PFNO 231156Z AUTO 29007KT 10SM OVC075 08/03 A2970 RMK AO2 SLP056 6//// 7//// T00780028 10128 20078 58001 PNO $
PFNO 231056Z AUTO 31010KT 10SM OVC070 08/03 A2970 RMK AO2 SLP058 T00830028 PNO $
PFNO 230956Z AUTO 31008KT 10SM SCT110 09/03 A2970 RMK AO2 SLP058 T00890033 PNO $
PFNO 230856Z AUTO 31004KT 10SM FEW090 08/04 A2970 RMK AO2 SLP058 6//// T00830039 401500033 53003 PNO $
PFNO 230756Z AUTO 32008KT 10SM FEW095 09/03 A2970 RMK AO2 SLP056 T00940033 PNO $
PFNO 230656Z AUTO 32007KT 10SM BKN110 11/04 A2969 RMK AO2 SLP054 T01110044 PNO $
PFNO 230556Z AUTO 33005KT 10SM CLR 13/04 A2969 RMK AO2 SLP055 6//// T01280044 10150 20128 56005 PNO $
PFNO 230456Z AUTO 30006KT 6SM HZ CLR 13/05 A2969 RMK AO2 SLP055 T01330050 PNO $
PFNO 230356Z AUTO 30007KT 10SM CLR 14/04 A2970 RMK AO2 SLP057 T01440044 PNO $